Time;durP1;ratioP1;P1;durP2;ratioP2;P2;SDS_P1;SDS_P2;PMS_P1;PMS_P2;Temp;Humidity;BMP_temperature;BMP_pressure;BME280_temperature;BME280_humidity;BME280_pressure;Samples;Min_cycle;Max_cycle;Signal;HPM_P1;HPM_P2
2022/11/15 00:00:24;;;;;;;;;;;7.50;99.90;;;;;;4983604;28;19910;-74
2022/11/15 00:02:52;;;;;;;;;;;7.50;99.90;;;;;;4984474;28;19914;-73
2022/11/15 00:05:18;;;;;;;;;;;7.50;99.90;;;;;;4983202;28;19918;-74
2022/11/15 00:07:43;;;;;;;;;;;7.50;99.90;;;;;;4984238;28;19934;-75
2022/11/15 00:10:09;;;;;;;;;;;7.50;99.90;;;;;;4984432;28;19956;-74
2022/11/15 00:12:34;;;;;;;;;;;7.50;99.90;;;;;;4999162;28;19918;-74
2022/11/15 00:15:00;;;;;;;;;;;7.50;99.90;;;;;;4984267;28;19914;-75
2022/11/15 00:17:26;;;;;;;;;;;7.50;99.90;;;;;;4983895;28;19942;-75
2022/11/15 00:19:51;;;;;;;;;;;7.50;99.90;;;;;;4983019;28;19956;-74
2022/11/15 00:22:17;;;;;;;;;;;7.50;99.90;;;;;;4984164;28;19953;-74
2022/11/15 00:24:43;;;;;;;;;;;7.50;99.90;;;;;;4982920;28;19929;-74
2022/11/15 00:27:08;;;;;;;;;;;7.50;99.90;;;;;;4983601;28;19948;-74
2022/11/15 00:29:34;;;;;;;;;;;7.50;99.90;;;;;;4984113;28;19984;-74
2022/11/15 00:32:00;;;;;;;;;;;7.50;99.90;;;;;;4984038;28;19910;-73
2022/11/15 00:34:25;;;;;;;;;;;7.50;99.90;;;;;;4984440;28;20209;-74
2022/11/15 00:36:51;;;;;;;;;;;7.50;99.90;;;;;;4983499;28;19949;-74
2022/11/15 00:39:16;;;;;;;;;;;7.50;99.90;;;;;;4983924;28;19917;-74
2022/11/15 00:41:42;;;;;;;;;;;7.50;99.90;;;;;;4983873;28;19924;-73
2022/11/15 00:44:08;;;;;;;;;;;7.50;99.90;;;;;;4983693;28;19929;-74
2022/11/15 00:46:33;;;;;;;;;;;7.40;99.90;;;;;;4982346;28;19965;-74
2022/11/15 00:48:59;;;;;;;;;;;7.40;99.90;;;;;;4983685;28;19965;-74
2022/11/15 00:51:25;;;;;;;;;;;7.40;99.90;;;;;;4983820;28;19917;-74
2022/11/15 00:53:50;;;;;;;;;;;7.40;99.90;;;;;;4983696;28;19910;-74
2022/11/15 00:56:16;;;;;;;;;;;7.40;99.90;;;;;;4983506;28;19980;-73
2022/11/15 00:58:42;;;;;;;;;;;7.40;99.90;;;;;;4983353;28;19910;-74
2022/11/15 01:01:08;;;;;;;;;;;7.40;99.90;;;;;;4983703;28;19925;-74
2022/11/15 01:03:35;;;;;;;;;;;7.40;99.90;;;;;;4982418;28;19914;-74
2022/11/15 01:06:00;;;;;;;;;;;7.40;99.90;;;;;;4966396;28;19914;-76
2022/11/15 01:08:26;;;;;;;;;;;7.40;99.90;;;;;;4983135;28;19910;-74
2022/11/15 01:10:51;;;;;;;;;;;7.40;99.90;;;;;;4983661;28;19910;-74
2022/11/15 01:13:17;;;;;;;;;;;7.30;99.90;;;;;;4983308;28;20001;-74
2022/11/15 01:15:43;;;;;;;;;;;7.30;99.90;;;;;;4982454;28;19918;-74
2022/11/15 01:18:08;;;;;;;;;;;7.30;99.90;;;;;;4983222;28;19918;-74
2022/11/15 01:20:34;;;;;;;;;;;7.30;99.90;;;;;;4982345;28;19933;-74
2022/11/15 01:23:00;;;;;;;;;;;7.30;99.90;;;;;;4983399;28;20086;-75
2022/11/15 01:25:25;;;;;;;;;;;7.30;99.90;;;;;;4983431;28;19910;-74
2022/11/15 01:27:51;;;;;;;;;;;7.20;99.90;;;;;;4982917;28;19917;-74
2022/11/15 01:30:17;;;;;;;;;;;7.20;99.90;;;;;;4983430;28;19910;-74
2022/11/15 01:32:42;;;;;;;;;;;7.10;99.90;;;;;;4983250;28;20234;-74
2022/11/15 01:35:08;;;;;;;;;;;7.10;99.90;;;;;;4983370;28;20117;-74
2022/11/15 01:37:33;;;;;;;;;;;7.00;99.90;;;;;;4982921;28;19914;-73
2022/11/15 01:39:59;;;;;;;;;;;7.00;99.90;;;;;;4983377;28;19910;-74
2022/11/15 01:42:25;;;;;;;;;;;6.90;99.90;;;;;;4982822;28;20149;-74
2022/11/15 01:44:51;;;;;;;;;;;6.90;99.90;;;;;;4983134;28;20264;-75
2022/11/15 01:47:37;;;;;;;;;;;6.90;99.90;;;;;;4982765;28;19914;-75
2022/11/15 01:50:05;;;;;;;;;;;6.90;99.90;;;;;;4966300;28;20220;-74
2022/11/15 01:52:32;;;;;;;;;;;6.90;99.90;;;;;;4966214;28;19917;-74
2022/11/15 01:55:19;;;;;;;;;;;6.90;99.90;;;;;;4983275;28;19937;-74
2022/11/15 01:57:46;;;;;;;;;;;6.90;99.90;;;;;;4981465;28;19952;-75
2022/11/15 02:00:13;;;;;;;;;;;6.90;99.90;;;;;;4982070;28;19910;-74
2022/11/15 02:02:39;;;;;;;;;;;6.90;99.90;;;;;;4982000;28;19914;-74
2022/11/15 02:05:04;;;;;;;;;;;6.90;99.90;;;;;;4965945;28;19969;-74
2022/11/15 02:07:30;;;;;;;;;;;6.80;99.90;;;;;;4982782;28;19918;-74
2022/11/15 02:09:58;;;;;;;;;;;6.80;99.90;;;;;;4967809;28;19945;-74
2022/11/15 02:12:24;;;;;;;;;;;6.80;99.90;;;;;;4969136;28;19910;-74
2022/11/15 02:14:52;;;;;;;;;;;6.80;99.90;;;;;;4986184;28;19948;-75
2022/11/15 02:17:29;;;;;;;;;;;6.80;99.90;;;;;;4969068;28;20168;-75
2022/11/15 02:20:14;;;;;;;;;;;6.80;99.90;;;;;;4986312;28;19911;-75
2022/11/15 02:22:58;;;;;;;;;;;6.70;99.90;;;;;;4986339;28;19964;-74
2022/11/15 02:25:24;;;;;;;;;;;6.70;99.90;;;;;;4986449;28;19921;-74
2022/11/15 02:28:21;;;;;;;;;;;6.80;99.90;;;;;;4985874;28;19981;-75
2022/11/15 02:30:47;;;;;;;;;;;6.80;99.90;;;;;;4986195;28;19910;-74
2022/11/15 02:33:28;;;;;;;;;;;6.80;99.90;;;;;;4969113;28;19925;-74
2022/11/15 02:36:01;;;;;;;;;;;6.80;99.90;;;;;;4986026;28;19911;-74
2022/11/15 02:38:32;;;;;;;;;;;6.70;99.90;;;;;;5015626;23;19964;-76
2022/11/15 02:40:59;;;;;;;;;;;6.70;99.90;;;;;;5005370;28;19910;-76
2022/11/15 02:49:25;;;;;;;;;;;6.50;99.90;;;;;;4985170;28;19918;-74
2022/11/15 02:51:50;;;;;;;;;;;6.50;99.90;;;;;;4984783;28;19922;-74
2022/11/15 02:54:28;;;;;;;;;;;6.40;99.90;;;;;;4968492;28;19932;-74
2022/11/15 02:56:56;;;;;;;;;;;6.30;99.90;;;;;;4984450;28;20228;-75
2022/11/15 02:59:41;;;;;;;;;;;6.30;99.90;;;;;;4984844;28;19910;-75
2022/11/15 03:02:40;;;;;;;;;;;6.30;99.90;;;;;;4994439;28;20145;-75
2022/11/15 03:05:34;;;;;;;;;;;6.30;99.90;;;;;;4984174;28;19949;-75
2022/11/15 03:08:17;;;;;;;;;;;6.20;99.90;;;;;;4966769;28;19976;-75
2022/11/15 03:11:09;;;;;;;;;;;6.20;99.90;;;;;;4965308;29;20202;-74
2022/11/15 03:13:56;;;;;;;;;;;6.10;99.90;;;;;;4965246;29;20248;-75
2022/11/15 03:16:34;;;;;;;;;;;6.20;99.90;;;;;;4964951;29;20091;-74
2022/11/15 03:19:04;;;;;;;;;;;6.20;99.90;;;;;;4983570;28;19910;-74
2022/11/15 03:21:30;;;;;;;;;;;6.10;99.90;;;;;;4983211;28;19910;-74
2022/11/15 03:23:56;;;;;;;;;;;6.10;99.90;;;;;;4984002;28;20132;-74
2022/11/15 03:26:21;;;;;;;;;;;6.10;99.90;;;;;;4967994;28;20164;-76
2022/11/15 03:28:54;;;;;;;;;;;6.00;99.90;;;;;;4968031;28;19910;-75
2022/11/15 03:34:07;;;;;;;;;;;6.00;99.90;;;;;;4984084;28;19932;-76
2022/11/15 03:36:32;;;;;;;;;;;6.00;99.90;;;;;;4967915;28;19997;-75
2022/11/15 03:38:59;;;;;;;;;;;6.00;99.90;;;;;;4964263;29;19914;-74
2022/11/15 03:41:31;;;;;;;;;;;6.00;99.90;;;;;;4964821;28;19918;-74
2022/11/15 03:44:04;;;;;;;;;;;6.00;99.90;;;;;;4964978;28;19921;-77
2022/11/15 03:47:08;;;;;;;;;;;6.00;99.90;;;;;;4965281;28;19917;-77
2022/11/15 03:49:35;;;;;;;;;;;6.00;99.90;;;;;;4969705;28;20095;-77
2022/11/15 03:52:02;;;;;;;;;;;6.00;99.90;;;;;;4964689;28;19965;-77
2022/11/15 03:54:28;;;;;;;;;;;6.00;99.90;;;;;;4964521;28;19957;-77
2022/11/15 03:56:54;;;;;;;;;;;6.00;99.90;;;;;;4964360;28;19937;-77
2022/11/15 03:59:19;;;;;;;;;;;6.00;99.90;;;;;;4964575;28;19911;-77
2022/11/15 04:01:45;;;;;;;;;;;6.00;99.90;;;;;;4964501;28;19937;-77
2022/11/15 04:04:11;;;;;;;;;;;6.10;99.90;;;;;;4964270;29;19938;-73
2022/11/15 04:06:36;;;;;;;;;;;6.00;99.90;;;;;;4947975;29;19911;-75
2022/11/15 04:09:02;;;;;;;;;;;6.00;99.90;;;;;;4963343;28;19917;-76
2022/11/15 04:11:28;;;;;;;;;;;5.90;99.90;;;;;;4980232;28;19911;-73
2022/11/15 04:13:53;;;;;;;;;;;6.00;99.90;;;;;;4963942;29;19985;-73
2022/11/15 04:16:19;;;;;;;;;;;5.90;99.90;;;;;;4964809;29;20210;-73
2022/11/15 04:24:11;;;;;;;;;;;5.90;99.90;;;;;;4979985;28;19917;-73
2022/11/15 04:24:14;;;;;;;;;;;5.90;99.90;;;;;;4964633;29;19937;-73
2022/11/15 04:26:40;;;;;;;;;;;5.80;99.90;;;;;;4981354;28;19918;-73
2022/11/15 04:31:50;;;;;;;;;;;5.70;99.90;;;;;;4983825;28;19917;-73
2022/11/15 04:34:16;;;;;;;;;;;5.60;99.90;;;;;;4982998;28;19918;-73
2022/11/15 04:39:26;;;;;;;;;;;5.50;99.90;;;;;;4983784;28;20267;-73
2022/11/15 04:41:51;;;;;;;;;;;5.50;99.90;;;;;;4982690;28;19938;-73
2022/11/15 04:44:17;;;;;;;;;;;5.50;99.90;;;;;;4982712;28;19921;-74
2022/11/15 04:46:42;;;;;;;;;;;5.50;99.90;;;;;;4983542;28;20198;-74
2022/11/15 04:49:08;;;;;;;;;;;5.40;99.90;;;;;;4983758;28;20184;-74
2022/11/15 04:51:34;;;;;;;;;;;5.40;99.90;;;;;;4983858;28;20156;-74
2022/11/15 04:53:59;;;;;;;;;;;5.40;99.90;;;;;;4982624;28;19910;-75
2022/11/15 04:56:25;;;;;;;;;;;5.40;99.90;;;;;;4982389;28;19924;-75
2022/11/15 04:58:51;;;;;;;;;;;5.40;99.90;;;;;;4982668;28;19910;-75
2022/11/15 05:01:16;;;;;;;;;;;5.30;99.90;;;;;;4982681;28;19910;-75
2022/11/15 05:06:27;;;;;;;;;;;5.40;99.90;;;;;;4982574;28;19917;-75
2022/11/15 05:08:52;;;;;;;;;;;5.40;99.90;;;;;;4982957;28;19910;-74
2022/11/15 05:11:18;;;;;;;;;;;5.40;99.90;;;;;;4982569;28;20201;-75
2022/11/15 05:13:44;;;;;;;;;;;5.40;99.90;;;;;;4983706;28;20101;-74
2022/11/15 05:16:09;;;;;;;;;;;5.50;99.90;;;;;;4982262;28;19941;-75
2022/11/15 05:18:35;;;;;;;;;;;5.50;99.90;;;;;;4982497;28;19918;-75
2022/11/15 05:21:05;;;;;;;;;;;5.50;99.90;;;;;;4983438;28;19930;-75
2022/11/15 05:23:31;;;;;;;;;;;5.50;99.90;;;;;;4966139;28;20340;-77
2022/11/15 05:26:03;;;;;;;;;;;5.50;99.90;;;;;;4983494;28;19910;-75
2022/11/15 05:28:28;;;;;;;;;;;5.50;99.90;;;;;;4965389;28;19930;-74
2022/11/15 05:31:03;;;;;;;;;;;5.50;99.90;;;;;;4981205;28;20053;-74
2022/11/15 05:33:29;;;;;;;;;;;5.50;99.90;;;;;;4981741;28;20337;-74
2022/11/15 05:36:06;;;;;;;;;;;5.50;99.90;;;;;;4982466;28;19914;-74
2022/11/15 05:38:32;;;;;;;;;;;5.50;99.90;;;;;;4966928;28;19922;-75
2022/11/15 05:40:58;;;;;;;;;;;5.50;99.90;;;;;;4980436;28;19925;-74
2022/11/15 05:43:24;;;;;;;;;;;5.50;99.90;;;;;;4965913;28;19922;-74
2022/11/15 05:45:50;;;;;;;;;;;5.50;99.90;;;;;;4986870;28;19911;-74
2022/11/15 05:48:15;;;;;;;;;;;5.40;99.90;;;;;;4985000;28;19957;-74
2022/11/15 05:50:41;;;;;;;;;;;5.30;99.90;;;;;;4985965;28;20205;-74
2022/11/15 05:53:07;;;;;;;;;;;5.20;99.90;;;;;;4985885;28;19985;-74
2022/11/15 05:55:33;;;;;;;;;;;5.10;99.90;;;;;;4986030;28;19910;-74
2022/11/15 05:57:59;;;;;;;;;;;5.00;99.90;;;;;;4985630;28;19975;-74
2022/11/15 06:00:25;;;;;;;;;;;5.00;99.90;;;;;;4969837;28;19910;-74
2022/11/15 06:02:50;;;;;;;;;;;4.90;99.90;;;;;;4986721;28;20213;-75
2022/11/15 06:05:16;;;;;;;;;;;4.80;99.90;;;;;;4969239;28;20145;-75
2022/11/15 06:07:42;;;;;;;;;;;4.80;99.90;;;;;;4986170;28;20260;-75
2022/11/15 06:10:08;;;;;;;;;;;4.80;99.90;;;;;;4982225;28;19917;-75
2022/11/15 06:12:34;;;;;;;;;;;4.70;99.90;;;;;;4982200;28;19918;-75
2022/11/15 06:14:59;;;;;;;;;;;4.70;99.90;;;;;;4950067;29;19957;-75
2022/11/15 06:17:25;;;;;;;;;;;4.80;99.90;;;;;;4966854;28;20213;-75
2022/11/15 06:19:50;;;;;;;;;;;4.80;99.90;;;;;;4966979;28;20153;-75
2022/11/15 06:22:16;;;;;;;;;;;4.70;99.90;;;;;;4965932;29;20138;-74
2022/11/15 06:24:43;;;;;;;;;;;4.70;99.90;;;;;;4966700;28;19919;-75
2022/11/15 06:27:10;;;;;;;;;;;4.70;99.90;;;;;;4966565;28;19997;-75
2022/11/15 06:29:36;;;;;;;;;;;4.80;99.90;;;;;;4966033;28;19994;-74
2022/11/15 06:32:02;;;;;;;;;;;4.80;99.90;;;;;;4983589;28;20131;-74
2022/11/15 06:34:27;;;;;;;;;;;4.80;99.90;;;;;;4983157;28;19910;-74
2022/11/15 06:36:53;;;;;;;;;;;4.90;99.90;;;;;;4982248;28;20117;-74
2022/11/15 06:39:19;;;;;;;;;;;4.90;99.90;;;;;;4985575;28;20153;-74
2022/11/15 06:41:45;;;;;;;;;;;4.90;99.90;;;;;;4986015;28;19933;-74
2022/11/15 06:44:10;;;;;;;;;;;5.00;99.90;;;;;;4983288;28;19926;-75
2022/11/15 06:46:36;;;;;;;;;;;5.00;99.90;;;;;;4985640;28;20333;-75
2022/11/15 06:49:02;;;;;;;;;;;5.10;99.90;;;;;;4984543;28;19941;-74
2022/11/15 06:51:27;;;;;;;;;;;5.10;99.90;;;;;;4985270;28;19952;-74
2022/11/15 06:53:53;;;;;;;;;;;5.00;99.90;;;;;;4951686;28;19910;-74
2022/11/15 06:56:19;;;;;;;;;;;4.90;99.90;;;;;;4967530;28;19965;-74
2022/11/15 06:58:45;;;;;;;;;;;4.90;99.90;;;;;;4984017;28;19925;-75
2022/11/15 07:01:11;;;;;;;;;;;4.80;99.90;;;;;;4984392;28;19922;-75
2022/11/15 07:03:38;;;;;;;;;;;4.80;99.90;;;;;;4984126;28;19926;-75
2022/11/15 07:06:04;;;;;;;;;;;4.80;99.90;;;;;;4968695;28;19914;-75
2022/11/15 07:08:30;;;;;;;;;;;4.80;99.90;;;;;;4985388;28;20090;-75
2022/11/15 07:11:01;;;;;;;;;;;4.80;99.90;;;;;;4984802;28;19918;-75
2022/11/15 07:13:27;;;;;;;;;;;4.80;99.90;;;;;;4968907;28;19914;-75
2022/11/15 07:15:53;;;;;;;;;;;4.90;99.90;;;;;;4984730;28;19910;-75
2022/11/15 07:18:19;;;;;;;;;;;5.00;99.90;;;;;;4985474;28;19914;-75
2022/11/15 07:20:44;;;;;;;;;;;5.00;99.90;;;;;;4985198;28;19944;-75
2022/11/15 07:23:10;;;;;;;;;;;5.10;99.90;;;;;;4984705;28;19918;-75
2022/11/15 07:25:36;;;;;;;;;;;5.00;99.90;;;;;;4984350;28;19922;-75
2022/11/15 07:28:02;;;;;;;;;;;5.10;99.90;;;;;;4985533;28;19910;-75
2022/11/15 07:30:27;;;;;;;;;;;5.10;99.90;;;;;;4952394;28;19910;-75
2022/11/15 07:32:57;;;;;;;;;;;5.20;99.90;;;;;;4984461;28;19953;-75
2022/11/15 07:35:23;;;;;;;;;;;5.30;99.90;;;;;;4968373;28;19911;-75
2022/11/15 07:37:56;;;;;;;;;;;5.40;99.90;;;;;;4967954;28;19913;-75
2022/11/15 07:40:21;;;;;;;;;;;5.40;99.90;;;;;;4968301;28;19914;-75
2022/11/15 07:42:53;;;;;;;;;;;5.50;99.90;;;;;;4984348;28;19977;-75
2022/11/15 07:45:22;;;;;;;;;;;5.60;99.90;;;;;;4985239;28;19996;-75
2022/11/15 07:47:49;;;;;;;;;;;5.70;99.90;;;;;;4983977;28;19984;-75
2022/11/15 07:50:15;;;;;;;;;;;5.70;99.90;;;;;;4984190;28;19917;-75
2022/11/15 07:52:41;;;;;;;;;;;5.80;99.90;;;;;;4984826;28;19990;-75
2022/11/15 07:55:07;;;;;;;;;;;5.80;99.90;;;;;;4967576;28;20192;-75
2022/11/15 07:57:33;;;;;;;;;;;5.90;99.90;;;;;;4967662;28;19952;-75
2022/11/15 07:59:59;;;;;;;;;;;5.90;99.90;;;;;;4985165;28;19910;-75
2022/11/15 08:02:24;;;;;;;;;;;6.00;99.90;;;;;;4985186;28;20189;-75
2022/11/15 08:04:50;;;;;;;;;;;6.10;99.90;;;;;;4983843;28;19922;-74
2022/11/15 08:07:16;;;;;;;;;;;6.10;99.90;;;;;;4998829;28;19918;-74
2022/11/15 08:09:41;;;;;;;;;;;6.10;99.90;;;;;;4984532;28;19910;-75
2022/11/15 08:12:07;;;;;;;;;;;6.20;99.90;;;;;;4985038;28;19910;-75
2022/11/15 08:14:34;;;;;;;;;;;6.30;99.90;;;;;;4983854;28;19910;-75
2022/11/15 08:16:59;;;;;;;;;;;6.30;99.90;;;;;;4999807;28;20109;-74
2022/11/15 08:19:25;;;;;;;;;;;6.40;99.90;;;;;;4984885;28;19925;-74
2022/11/15 08:21:51;;;;;;;;;;;6.50;99.90;;;;;;4983487;28;19916;-74
2022/11/15 08:24:17;;;;;;;;;;;6.60;99.90;;;;;;4984403;28;19917;-75
2022/11/15 08:26:42;;;;;;;;;;;6.60;99.90;;;;;;4983479;28;19918;-74
2022/11/15 08:29:08;;;;;;;;;;;6.80;99.90;;;;;;4983503;28;19914;-73
2022/11/15 08:31:36;;;;;;;;;;;6.90;99.90;;;;;;4983398;28;19910;-74
2022/11/15 08:34:02;;;;;;;;;;;7.00;99.90;;;;;;4951599;28;19914;-74
2022/11/15 08:36:28;;;;;;;;;;;7.20;99.90;;;;;;4983053;28;20021;-74
2022/11/15 08:38:54;;;;;;;;;;;7.30;99.90;;;;;;4979894;28;19914;-74
2022/11/15 08:41:29;;;;;;;;;;;7.30;99.90;;;;;;4963928;29;19914;-75
2022/11/15 08:43:55;;;;;;;;;;;7.40;99.90;;;;;;4963621;29;19945;-74
2022/11/15 08:46:21;;;;;;;;;;;7.50;99.90;;;;;;4979476;28;19941;-74
2022/11/15 08:48:47;;;;;;;;;;;7.50;99.90;;;;;;4963682;29;19918;-74
2022/11/15 08:51:12;;;;;;;;;;;7.70;99.90;;;;;;4963755;29;19911;-74
2022/11/15 08:53:38;;;;;;;;;;;7.70;99.90;;;;;;4979458;28;19911;-75
2022/11/15 08:56:07;;;;;;;;;;;7.80;99.90;;;;;;4982723;28;20117;-74
2022/11/15 08:58:33;;;;;;;;;;;7.90;99.90;;;;;;4967225;28;20228;-74
2022/11/15 09:00:59;;;;;;;;;;;8.00;99.90;;;;;;4984098;28;19973;-74
2022/11/15 09:03:24;;;;;;;;;;;8.10;99.90;;;;;;4983122;28;19941;-74
2022/11/15 09:06:00;;;;;;;;;;;8.20;99.90;;;;;;4982943;28;19918;-74
2022/11/15 09:08:29;;;;;;;;;;;8.40;99.90;;;;;;4983081;28;20217;-74
2022/11/15 09:10:54;;;;;;;;;;;8.60;99.90;;;;;;4982908;28;19917;-74
2022/11/15 09:13:20;;;;;;;;;;;8.70;99.90;;;;;;4967356;28;19918;-73
2022/11/15 09:15:45;;;;;;;;;;;8.90;99.90;;;;;;4982568;28;19926;-74
2022/11/15 09:18:11;;;;;;;;;;;9.00;99.90;;;;;;4984385;28;19941;-73
2022/11/15 09:20:37;;;;;;;;;;;9.20;99.90;;;;;;4986575;28;19941;-73
2022/11/15 09:23:03;;;;;;;;;;;9.30;99.90;;;;;;4986319;28;19917;-74
2022/11/15 09:25:29;;;;;;;;;;;9.50;99.90;;;;;;4986426;28;19921;-74
2022/11/15 09:27:54;;;;;;;;;;;9.60;99.90;;;;;;4985995;28;20320;-74
2022/11/15 09:30:20;;;;;;;;;;;9.80;99.90;;;;;;4986481;28;19918;-74
2022/11/15 09:32:46;;;;;;;;;;;10.00;99.90;;;;;;4986446;28;19918;-74
2022/11/15 09:35:11;;;;;;;;;;;10.10;99.90;;;;;;4987470;28;19935;-74
2022/11/15 09:37:37;;;;;;;;;;;10.30;99.90;;;;;;4986902;28;19917;-74
2022/11/15 09:40:03;;;;;;;;;;;10.40;99.90;;;;;;4985869;28;19917;-73
2022/11/15 09:42:44;;;;;;;;;;;10.50;99.90;;;;;;4986241;28;20090;-74
2022/11/15 09:45:12;;;;;;;;;;;10.60;99.90;;;;;;4987247;28;19914;-73
2022/11/15 09:47:56;;;;;;;;;;;10.70;99.90;;;;;;4985825;28;19910;-74
2022/11/15 09:50:34;;;;;;;;;;;10.80;99.90;;;;;;4987176;28;19910;-74
2022/11/15 09:52:59;;;;;;;;;;;11.00;99.90;;;;;;4986333;28;19976;-74
2022/11/15 09:55:51;;;;;;;;;;;11.20;99.90;;;;;;4987046;28;20213;-74
2022/11/15 09:58:30;;;;;;;;;;;11.30;99.90;;;;;;4986410;28;19910;-74
2022/11/15 10:00:56;;;;;;;;;;;11.60;99.90;;;;;;4985928;28;20276;-74
2022/11/15 10:03:26;;;;;;;;;;;11.80;99.90;;;;;;4985651;28;19917;-74
2022/11/15 10:05:54;;;;;;;;;;;12.00;99.90;;;;;;4985688;28;19917;-74
2022/11/15 10:08:22;;;;;;;;;;;12.20;99.90;;;;;;4985163;28;19945;-74
2022/11/15 10:10:50;;;;;;;;;;;12.40;99.90;;;;;;4986170;28;20355;-75
2022/11/15 10:13:23;;;;;;;;;;;12.60;99.90;;;;;;4969242;28;19918;-74
2022/11/15 10:15:50;;;;;;;;;;;12.90;99.90;;;;;;4985604;28;19910;-75
2022/11/15 10:18:28;;;;;;;;;;;13.10;99.90;;;;;;4986185;28;19965;-74
2022/11/15 10:21:02;;;;;;;;;;;13.30;99.90;;;;;;4985709;28;20150;-74
2022/11/15 10:23:28;;;;;;;;;;;13.50;99.90;;;;;;4984579;28;19910;-75
2022/11/15 10:25:55;;;;;;;;;;;13.70;99.90;;;;;;4985263;28;20279;-75
2022/11/15 10:28:27;;;;;;;;;;;13.90;99.90;;;;;;4985228;28;19940;-74
2022/11/15 10:30:54;;;;;;;;;;;14.20;99.90;;;;;;4985014;28;20256;-74
2022/11/15 10:33:29;;;;;;;;;;;14.50;99.90;;;;;;4985220;28;20206;-74
2022/11/15 10:36:09;;;;;;;;;;;14.80;99.90;;;;;;4986457;28;19917;-75
2022/11/15 10:38:50;;;;;;;;;;;15.00;99.90;;;;;;4984126;28;20103;-75
2022/11/15 10:41:22;;;;;;;;;;;15.40;99.90;;;;;;4985575;28;19918;-75
2022/11/15 10:44:06;;;;;;;;;;;15.70;99.90;;;;;;4986567;28;19914;-75
2022/11/15 10:46:33;;;;;;;;;;;16.00;99.90;;;;;;4986201;28;19910;-75
2022/11/15 10:49:15;;;;;;;;;;;16.20;99.90;;;;;;4984937;28;19941;-75
2022/11/15 10:51:49;;;;;;;;;;;16.30;99.90;;;;;;4985357;28;20094;-75
2022/11/15 10:54:21;;;;;;;;;;;16.50;99.90;;;;;;4984769;28;19917;-75
2022/11/15 10:56:51;;;;;;;;;;;16.60;99.90;;;;;;4984688;28;19988;-75
2022/11/15 10:59:23;;;;;;;;;;;16.50;99.90;;;;;;4984952;28;19977;-75
2022/11/15 11:01:49;;;;;;;;;;;16.20;99.90;;;;;;4984851;28;19917;-74
2022/11/15 11:04:15;;;;;;;;;;;15.90;99.90;;;;;;4984695;28;19918;-74
2022/11/15 11:06:57;;;;;;;;;;;15.70;99.90;;;;;;4984318;28;19929;-75
2022/11/15 11:09:32;;;;;;;;;;;15.50;99.90;;;;;;4984205;28;20251;-75
2022/11/15 11:11:57;;;;;;;;;;;15.10;99.90;;;;;;4984564;28;19981;-74
2022/11/15 11:14:30;;;;;;;;;;;14.90;99.90;;;;;;4985802;28;19937;-75
2022/11/15 11:17:16;;;;;;;;;;;14.80;99.90;;;;;;4985290;28;20109;-75
2022/11/15 11:20:04;;;;;;;;;;;14.80;99.90;;;;;;4984375;28;19941;-74
2022/11/15 11:22:42;;;;;;;;;;;14.70;99.90;;;;;;4985740;28;20117;-74
2022/11/15 11:25:19;;;;;;;;;;;14.70;99.90;;;;;;4984046;28;20007;-75
2022/11/15 11:28:25;;;;;;;;;;;14.60;99.90;;;;;;4984639;28;19993;-74
2022/11/15 11:31:14;;;;;;;;;;;14.50;99.90;;;;;;4968118;28;19989;-74
2022/11/15 11:34:29;;;;;;;;;;;14.60;99.90;;;;;;4981809;28;19910;-74
2022/11/15 11:37:16;;;;;;;;;;;14.60;99.90;;;;;;4982989;28;19917;-74
2022/11/15 11:39:51;;;;;;;;;;;14.70;99.90;;;;;;4983632;28;19918;-75
2022/11/15 11:42:39;;;;;;;;;;;14.80;99.90;;;;;;4983141;28;19910;-74
2022/11/15 11:45:13;;;;;;;;;;;15.00;99.90;;;;;;4983915;28;19921;-74
2022/11/15 11:47:40;;;;;;;;;;;15.10;99.90;;;;;;4984568;28;20201;-75
2022/11/15 11:50:22;;;;;;;;;;;15.30;99.90;;;;;;4983779;28;19918;-74
2022/11/15 11:52:54;;;;;;;;;;;15.30;99.90;;;;;;4983730;28;19933;-74
2022/11/15 11:55:23;;;;;;;;;;;15.40;99.90;;;;;;4984419;28;19910;-75
2022/11/15 11:58:04;;;;;;;;;;;15.40;99.90;;;;;;4983683;28;19910;-75
2022/11/15 12:00:31;;;;;;;;;;;15.60;99.90;;;;;;4983671;28;19917;-75
2022/11/15 12:03:02;;;;;;;;;;;15.70;99.90;;;;;;4983623;28;19922;-75
2022/11/15 12:05:41;;;;;;;;;;;15.80;99.90;;;;;;4984701;28;19914;-75
2022/11/15 12:08:25;;;;;;;;;;;15.90;99.90;;;;;;4983129;28;19910;-75
2022/11/15 12:11:00;;;;;;;;;;;16.10;99.90;;;;;;4983302;28;20129;-75
2022/11/15 12:13:26;;;;;;;;;;;16.50;99.90;;;;;;4983369;28;19952;-75
2022/11/15 12:16:00;;;;;;;;;;;16.90;99.90;;;;;;4983357;28;19910;-75
2022/11/15 12:18:25;;;;;;;;;;;17.10;99.20;;;;;;4983038;28;19949;-75
2022/11/15 12:21:01;;;;;;;;;;;17.40;97.80;;;;;;4984249;28;20232;-75
2022/11/15 12:23:28;;;;;;;;;;;17.60;95.60;;;;;;4982569;28;20090;-75
2022/11/15 12:26:09;;;;;;;;;;;17.70;93.90;;;;;;4982783;28;19988;-75
2022/11/15 12:28:44;;;;;;;;;;;17.90;94.30;;;;;;4982880;28;19933;-75
2022/11/15 12:31:43;;;;;;;;;;;18.10;94.70;;;;;;4984294;28;19981;-75
2022/11/15 12:34:21;;;;;;;;;;;18.00;94.60;;;;;;4982480;28;20001;-75
2022/11/15 12:36:48;;;;;;;;;;;17.90;94.30;;;;;;4983780;28;19918;-75
2022/11/15 12:39:14;;;;;;;;;;;17.80;94.80;;;;;;4982498;28;19989;-75
2022/11/15 12:41:43;;;;;;;;;;;17.60;95.20;;;;;;4984406;28;19909;-76
2022/11/15 12:44:38;;;;;;;;;;;17.50;95.00;;;;;;4983259;28;19914;-76
2022/11/15 12:47:25;;;;;;;;;;;17.30;95.00;;;;;;4974971;28;19935;-76
2022/11/15 12:49:51;;;;;;;;;;;17.10;95.60;;;;;;4983293;28;20117;-76
2022/11/15 12:52:17;;;;;;;;;;;17.00;95.20;;;;;;4982970;28;19945;-76
2022/11/15 12:54:43;;;;;;;;;;;16.70;93.60;;;;;;4966230;28;19910;-76
2022/11/15 12:57:14;;;;;;;;;;;16.50;95.60;;;;;;4983470;28;19914;-76
2022/11/15 12:59:58;;;;;;;;;;;16.40;97.60;;;;;;4983586;28;19913;-76
2022/11/15 13:02:25;;;;;;;;;;;16.30;99.60;;;;;;4967506;28;19916;-76
2022/11/15 13:04:52;;;;;;;;;;;16.10;99.90;;;;;;4983606;28;20000;-76
2022/11/15 13:07:41;;;;;;;;;;;16.00;99.90;;;;;;4982043;28;19953;-76
2022/11/15 13:10:09;;;;;;;;;;;15.90;99.90;;;;;;4982907;28;20090;-76
2022/11/15 13:12:38;;;;;;;;;;;15.70;99.90;;;;;;4983727;28;19987;-76
2022/11/15 13:15:13;;;;;;;;;;;15.70;99.90;;;;;;4983710;28;19990;-76
2022/11/15 13:17:40;;;;;;;;;;;15.60;99.90;;;;;;4983426;28;19917;-76
2022/11/15 13:20:10;;;;;;;;;;;15.50;99.90;;;;;;4982647;28;20209;-76
2022/11/15 13:22:52;;;;;;;;;;;15.40;99.90;;;;;;4982441;28;19965;-76
2022/11/15 13:25:41;;;;;;;;;;;15.30;99.90;;;;;;4983443;28;19914;-77
2022/11/15 13:28:17;;;;;;;;;;;15.30;99.90;;;;;;4982160;28;19914;-77
2022/11/15 13:30:51;;;;;;;;;;;15.20;99.90;;;;;;4982305;28;19917;-75
2022/11/15 13:33:32;;;;;;;;;;;15.20;99.90;;;;;;4982337;28;19945;-76
2022/11/15 13:36:03;;;;;;;;;;;15.10;99.90;;;;;;4982264;28;19910;-77
2022/11/15 13:38:35;;;;;;;;;;;15.10;99.90;;;;;;4982001;28;19977;-76
2022/11/15 13:41:16;;;;;;;;;;;15.10;99.90;;;;;;4982143;28;19957;-76
2022/11/15 13:43:42;;;;;;;;;;;15.10;99.90;;;;;;4982432;28;20094;-77
2022/11/15 13:46:24;;;;;;;;;;;15.10;99.90;;;;;;4965893;28;19910;-77
2022/11/15 13:48:58;;;;;;;;;;;15.10;99.90;;;;;;4982251;28;19973;-77
2022/11/15 13:51:37;;;;;;;;;;;15.10;99.90;;;;;;4966356;28;19911;-77
2022/11/15 13:54:13;;;;;;;;;;;15.10;99.90;;;;;;4982058;28;19910;-77
2022/11/15 13:56:59;;;;;;;;;;;15.10;99.90;;;;;;4982010;28;20149;-77
2022/11/15 13:59:35;;;;;;;;;;;15.10;99.90;;;;;;4967498;28;20282;-78
2022/11/15 14:02:10;;;;;;;;;;;15.20;99.90;;;;;;4966865;28;20002;-77
2022/11/15 14:04:36;;;;;;;;;;;15.20;99.90;;;;;;4967020;28;19922;-77
2022/11/15 14:07:01;;;;;;;;;;;15.30;99.90;;;;;;4969327;28;19917;-78
2022/11/15 14:09:32;;;;;;;;;;;15.30;99.90;;;;;;4985307;28;19933;-78
2022/11/15 14:11:58;;;;;;;;;;;15.40;99.90;;;;;;4982204;28;19910;-78
2022/11/15 14:14:25;;;;;;;;;;;15.40;99.90;;;;;;4966274;29;20033;-78
2022/11/15 14:16:55;;;;;;;;;;;15.30;99.90;;;;;;4965906;29;19945;-77
2022/11/15 14:19:20;;;;;;;;;;;15.30;99.90;;;;;;4966293;28;19954;-77
2022/11/15 14:22:15;;;;;;;;;;;15.30;99.90;;;;;;4967345;28;20205;-77
2022/11/15 14:24:42;;;;;;;;;;;15.20;99.90;;;;;;4965847;28;19969;-77
2022/11/15 14:27:21;;;;;;;;;;;15.10;99.90;;;;;;4965755;28;19917;-76
2022/11/15 14:29:47;;;;;;;;;;;15.00;99.90;;;;;;4965725;29;19910;-76
2022/11/15 14:32:27;;;;;;;;;;;15.00;99.90;;;;;;4966161;28;19981;-77
2022/11/15 14:34:58;;;;;;;;;;;14.90;99.90;;;;;;4982031;28;19961;-77
2022/11/15 14:37:34;;;;;;;;;;;14.90;99.90;;;;;;4965507;28;19914;-77
2022/11/15 14:40:04;;;;;;;;;;;14.80;99.90;;;;;;4965542;28;19910;-77
2022/11/15 14:42:30;;;;;;;;;;;14.70;99.90;;;;;;4980228;28;19994;-77
2022/11/15 14:44:55;;;;;;;;;;;14.60;99.90;;;;;;4965834;28;20169;-77
2022/11/15 14:47:21;;;;;;;;;;;14.50;99.90;;;;;;4966670;29;19942;-77
2022/11/15 14:49:47;;;;;;;;;;;14.50;99.90;;;;;;4966706;28;19911;-77
2022/11/15 14:52:27;;;;;;;;;;;14.40;99.90;;;;;;4981853;28;19916;-77
2022/11/15 14:54:53;;;;;;;;;;;14.30;99.90;;;;;;4981402;28;19924;-76
2022/11/15 14:57:19;;;;;;;;;;;14.20;99.90;;;;;;4981334;28;19910;-77
2022/11/15 14:59:45;;;;;;;;;;;14.10;99.90;;;;;;4981770;28;19916;-77
2022/11/15 15:02:16;;;;;;;;;;;14.10;99.90;;;;;;4981591;28;19949;-77